Time;durP1;ratioP1;P1;durP2;ratioP2;P2;SDS_P1;SDS_P2;PMS_P1;PMS_P2;Temp;Humidity;BMP_temperature;BMP_pressure;BME280_temperature;BME280_humidity;BME280_pressure;Samples;Min_cycle;Max_cycle;Signal;HPM_P1;HPM_P2
2023/01/03 00:02:20;;;;;;;11.38;2.95;;;33.80;99.90;;;;;;5084929;28;20216;-69
2023/01/03 00:04:48;;;;;;;11.23;2.28;;;33.90;99.90;;;;;;5075883;28;20188;-70
2023/01/03 00:07:32;;;;;;;10.25;2.28;;;33.90;99.90;;;;;;5081432;28;20273;-69
2023/01/03 00:10:07;;;;;;;10.40;2.95;;;33.40;99.90;;;;;;5079861;28;20558;-69
2023/01/03 00:12:36;;;;;;;10.82;2.38;;;33.60;99.90;;;;;;5083095;28;20699;-70
2023/01/03 00:15:04;;;;;;;5.68;1.98;;;33.90;99.90;;;;;;5085171;28;20257;-69
2023/01/03 00:17:32;;;;;;;7.43;2.40;;;34.10;99.90;;;;;;5083612;28;20187;-69
2023/01/03 00:20:00;;;;;;;9.45;2.60;;;34.40;99.90;;;;;;5084346;28;20280;-69
2023/01/03 00:22:31;;;;;;;11.52;2.60;;;34.70;99.90;;;;;;5085374;28;20199;-69
2023/01/03 00:24:59;;;;;;;8.57;2.20;;;35.10;99.90;;;;;;5084637;28;20198;-69
2023/01/03 00:27:27;;;;;;;6.25;2.30;;;34.60;99.90;;;;;;5084584;28;20179;-69
2023/01/03 00:29:55;;;;;;;9.02;2.10;;;34.90;99.90;;;;;;5083554;28;20183;-70
2023/01/03 00:32:23;;;;;;;8.52;2.17;;;34.60;99.90;;;;;;5094000;28;20576;-70
2023/01/03 00:34:51;;;;;;;8.00;2.33;;;34.70;99.90;;;;;;5095341;28;20217;-69
2023/01/03 00:37:19;;;;;;;7.18;2.50;;;35.20;99.90;;;;;;5095061;28;20172;-70
2023/01/03 00:39:47;;;;;;;5.68;1.85;;;35.50;99.90;;;;;;5095481;28;20706;-70
2023/01/03 00:42:15;;;;;;;8.55;2.40;;;35.40;99.90;;;;;;5094470;28;20176;-70
2023/01/03 00:44:42;;;;;;;9.45;2.45;;;35.20;99.90;;;;;;5094902;28;20224;-71
2023/01/03 00:47:10;;;;;;;7.80;2.55;;;35.10;99.90;;;;;;5095378;28;20171;-69
2023/01/03 00:49:38;;;;;;;8.95;2.33;;;34.70;99.90;;;;;;5079342;28;20237;-70
2023/01/03 00:52:06;;;;;;;10.80;2.53;;;34.90;99.90;;;;;;5093537;28;20553;-72
2023/01/03 00:54:33;;;;;;;5.63;1.90;;;34.60;99.90;;;;;;5095242;28;20243;-69
2023/01/03 00:57:02;;;;;;;9.27;2.28;;;35.10;99.90;;;;;;5083458;28;20202;-69
2023/01/03 00:59:30;;;;;;;6.63;1.90;;;35.50;99.90;;;;;;5083223;28;20187;-69
2023/01/03 01:01:58;;;;;;;12.18;2.88;;;35.50;99.90;;;;;;5094170;28;20585;-70
2023/01/03 01:04:31;;;;;;;8.18;2.25;;;35.90;99.90;;;;;;5095063;28;20540;-69
2023/01/03 01:07:03;;;;;;;10.30;2.38;;;35.80;99.90;;;;;;5091819;28;20171;-70
2023/01/03 01:09:36;;;;;;;8.00;2.42;;;36.00;99.10;;;;;;5092637;28;20179;-69
2023/01/03 01:12:06;;;;;;;6.47;2.38;;;35.60;99.80;;;;;;5093818;28;20223;-70
2023/01/03 01:14:34;;;;;;;10.50;2.28;;;35.10;99.90;;;;;;5093061;28;20206;-70
2023/01/03 01:17:05;;;;;;;5.25;2.25;;;35.30;99.90;;;;;;5080763;28;20649;-70
2023/01/03 01:19:39;;;;;;;11.38;2.47;;;34.80;99.90;;;;;;5082124;28;20183;-68
2023/01/03 01:22:07;;;;;;;7.20;2.15;;;35.20;99.90;;;;;;5092958;28;20199;-68
2023/01/03 01:24:35;;;;;;;6.25;1.88;;;35.20;99.90;;;;;;5093083;28;20175;-69
2023/01/03 01:27:03;;;;;;;5.82;1.80;;;35.60;99.90;;;;;;5092860;28;20183;-69
2023/01/03 01:29:31;;;;;;;7.45;2.90;;;35.80;99.90;;;;;;5086774;28;20186;-68
2023/01/03 01:32:00;;;;;;;6.28;1.92;;;36.10;99.90;;;;;;5093218;28;20179;-68
2023/01/03 01:34:28;;;;;;;7.63;2.13;;;36.20;99.90;;;;;;5093014;28;20203;-71
2023/01/03 01:36:56;;;;;;;9.25;2.60;;;36.10;99.90;;;;;;5092611;28;20213;-69
2023/01/03 01:39:26;;;;;;;10.38;2.55;;;36.30;99.90;;;;;;5091939;28;20194;-70
2023/01/03 01:44:52;;;;;;;6.80;2.15;;;35.60;99.90;;;;;;5082302;28;20233;-71
2023/01/03 01:47:40;;;;;;;11.65;2.42;;;35.40;99.90;;;;;;5080681;28;20172;-75
2023/01/03 01:50:23;;;;;;;10.30;2.58;;;35.30;99.90;;;;;;5072840;28;20570;-70
2023/01/03 01:53:11;;;;;;;11.65;2.67;;;35.20;99.90;;;;;;5072417;28;20619;-71
2023/01/03 01:55:50;;;;;;;12.70;3.15;;;35.00;99.90;;;;;;5072668;28;20211;-70
2023/01/03 01:58:20;;;;;;;12.70;3.13;;;34.70;99.90;;;;;;5076877;28;20293;-70
2023/01/03 02:00:48;;;;;;;11.27;2.53;;;34.70;99.90;;;;;;5092557;28;20167;-71
2023/01/03 02:03:16;;;;;;;8.25;2.78;;;34.80;99.90;;;;;;5092718;28;20167;-70
2023/01/03 02:05:48;;;;;;;15.75;2.70;;;34.80;99.90;;;;;;5092331;28;20175;-69
2023/01/03 02:08:17;;;;;;;12.52;2.38;;;34.70;99.90;;;;;;5090580;28;20660;-73
2023/01/03 02:11:06;;;;;;;10.38;3.10;;;34.60;99.90;;;;;;4955584;28;3554022;-70
2023/01/03 02:13:57;;;;;;;11.02;2.33;;;34.50;99.90;;;;;;5072907;28;20207;-70
2023/01/03 02:16:52;;;;;;;12.30;2.55;;;34.70;99.90;;;;;;5073214;28;20555;-70
2023/01/03 02:19:40;;;;;;;12.40;2.45;;;34.40;99.90;;;;;;5085934;28;20732;-70
2023/01/03 02:22:17;;;;;;;7.03;1.77;;;34.50;99.90;;;;;;5092833;28;20641;-70
2023/01/03 02:25:31;;;;;;;12.13;2.90;;;34.70;99.90;;;;;;5085701;28;20178;-68
2023/01/03 02:28:28;;;;;;;7.53;2.15;;;34.30;99.90;;;;;;5021445;28;20204;-69
2023/01/03 02:31:14;;;;;;;8.93;2.10;;;34.60;99.90;;;;;;5001964;28;20281;-70
2023/01/03 02:34:09;;;;;;;12.52;3.22;;;34.50;99.90;;;;;;5071409;28;20184;-71
2023/01/03 02:37:13;;;;;;;7.75;2.30;;;34.30;99.90;;;;;;5034996;28;20227;-69
2023/01/03 02:40:17;;;;;;;11.88;2.85;;;34.30;99.90;;;;;;5074378;28;20669;-70
2023/01/03 02:43:06;;;;;;;7.22;2.28;;;34.30;99.90;;;;;;5005779;28;20605;-73
2023/01/03 02:45:58;;;;;;;5.82;2.05;;;34.70;99.90;;;;;;5072958;28;20180;-70
2023/01/03 02:48:35;;;;;;;10.25;2.70;;;34.70;99.90;;;;;;5072788;28;20204;-72
2023/01/03 02:51:09;;;;;;;11.98;2.80;;;34.20;99.90;;;;;;5070888;28;20183;-73
2023/01/03 02:53:44;;;;;;;6.28;1.77;;;34.10;99.90;;;;;;5072577;28;20174;-71
2023/01/03 02:56:29;;;;;;;5.47;2.20;;;34.40;99.90;;;;;;5077634;28;20664;-73
2023/01/03 02:59:01;;;;;;;8.68;2.40;;;34.70;99.90;;;;;;5092130;28;20198;-69
2023/01/03 03:01:30;;;;;;;9.80;2.50;;;34.60;99.90;;;;;;5080216;28;20179;-73
2023/01/03 03:04:01;;;;;;;12.93;2.38;;;34.80;99.90;;;;;;5073214;28;20180;-73
2023/01/03 03:06:45;;;;;;;11.98;2.88;;;34.40;99.90;;;;;;5092106;28;20175;-72
2023/01/03 03:09:12;;;;;;;6.05;1.98;;;34.60;99.90;;;;;;5092503;28;20171;-71
2023/01/03 03:14:58;;;;;;;10.60;2.45;;;34.70;99.90;;;;;;5092086;28;20257;-72
2023/01/03 03:17:31;;;;;;;12.52;2.17;;;34.60;99.90;;;;;;5075612;28;20195;-70
2023/01/03 03:25:54;;;;;;;7.00;2.05;;;34.20;99.90;;;;;;5072175;28;20664;-72
2023/01/03 03:28:34;;;;;;;8.20;2.05;;;34.20;99.90;;;;;;5084971;28;20280;-72
2023/01/03 03:31:11;;;;;;;6.25;2.33;;;34.20;99.90;;;;;;5092244;28;20171;-75
2023/01/03 03:34:06;;;;;;;6.28;2.05;;;34.00;99.90;;;;;;5090917;28;20179;-76
2023/01/03 03:36:52;;;;;;;10.55;2.33;;;33.70;99.90;;;;;;5077425;28;20226;-71
2023/01/03 03:45:24;;;;;;;5.25;2.10;;;33.40;99.90;;;;;;5077328;28;20191;-71
2023/01/03 03:47:57;;;;;;;8.75;2.20;;;33.50;99.90;;;;;;5071620;28;20183;-71
2023/01/03 03:50:39;;;;;;;9.10;2.20;;;33.70;99.90;;;;;;5071305;28;20207;-69
2023/01/03 03:53:10;;;;;;;6.57;1.90;;;33.80;99.90;;;;;;5075249;28;20180;-75
2023/01/03 03:55:46;;;;;;;7.25;2.00;;;33.50;99.90;;;;;;5070177;28;20689;-73
2023/01/03 03:58:35;;;;;;;4.75;1.70;;;33.30;99.90;;;;;;5071221;28;20198;-76
2023/01/03 04:01:04;;;;;;;5.75;2.03;;;33.30;99.90;;;;;;5071099;28;20206;-71
2023/01/03 04:03:33;;;;;;;6.07;1.50;;;33.50;99.90;;;;;;5071446;28;20176;-75
2023/01/03 04:06:16;;;;;;;7.00;1.90;;;33.90;99.90;;;;;;5071848;28;20190;-72
2023/01/03 04:08:44;;;;;;;7.75;1.63;;;34.10;99.90;;;;;;5089614;28;20186;-69
2023/01/03 04:11:12;;;;;;;6.97;1.77;;;34.10;99.90;;;;;;5091341;28;20219;-70
2023/01/03 04:13:40;;;;;;;7.32;2.05;;;34.10;99.90;;;;;;5075427;28;20180;-69
2023/01/03 04:16:08;;;;;;;6.50;2.08;;;33.80;99.80;;;;;;5079044;28;20227;-70
2023/01/03 04:18:36;;;;;;;6.15;2.22;;;33.80;99.90;;;;;;5091460;28;20182;-71
2023/01/03 04:21:04;;;;;;;9.85;2.28;;;33.80;99.10;;;;;;5084216;28;20713;-69
2023/01/03 04:23:31;;;;;;;5.40;1.50;;;33.80;99.90;;;;;;5071338;28;20176;-70
2023/01/03 04:25:59;;;;;;;7.57;1.88;;;34.00;99.90;;;;;;5072881;28;20187;-69
2023/01/03 04:28:27;;;;;;;7.13;2.08;;;33.80;99.90;;;;;;5091020;28;20258;-72
2023/01/03 04:30:55;;;;;;;7.10;1.98;;;34.10;99.90;;;;;;5089984;28;20184;-74
2023/01/03 04:33:23;;;;;;;7.45;2.17;;;33.80;99.90;;;;;;5080422;28;20180;-71
2023/01/03 04:35:50;;;;;;;6.95;2.10;;;33.80;99.90;;;;;;5072322;28;20251;-70
2023/01/03 04:38:18;;;;;;;6.13;1.45;;;33.40;99.90;;;;;;5091116;28;20702;-72
2023/01/03 04:40:46;;;;;;;7.60;1.92;;;34.00;99.90;;;;;;5091292;28;20237;-70
2023/01/03 04:45:59;;;;;;;7.18;1.95;;;33.80;99.90;;;;;;5073479;28;20195;-72
2023/01/03 04:48:27;;;;;;;6.88;2.10;;;33.50;99.90;;;;;;5091058;28;20623;-71
2023/01/03 04:50:59;;;;;;;6.82;1.73;;;33.00;99.90;;;;;;5075632;28;20184;-72
2023/01/03 04:53:27;;;;;;;7.20;2.10;;;32.20;99.90;;;;;;5071131;28;20172;-70
2023/01/03 04:55:58;;;;;;;5.75;2.15;;;32.00;99.90;;;;;;5070471;28;20226;-73
2023/01/03 04:58:26;;;;;;;7.75;2.03;;;31.90;99.90;;;;;;5072495;28;20622;-75
2023/01/03 05:01:00;;;;;;;9.82;1.80;;;32.30;99.90;;;;;;5088078;28;20183;-72
2023/01/03 05:03:29;;;;;;;7.68;2.20;;;32.60;99.90;;;;;;5094472;28;20209;-70
2023/01/03 05:06:05;;;;;;;7.00;1.92;;;32.60;99.90;;;;;;5094720;28;20254;-73
2023/01/03 05:08:34;;;;;;;12.10;2.00;;;32.60;99.90;;;;;;5094823;28;20175;-73
2023/01/03 05:11:02;;;;;;;7.07;1.92;;;32.30;99.90;;;;;;5078970;28;20611;-76
2023/01/03 05:13:31;;;;;;;5.73;1.80;;;32.30;99.90;;;;;;5075698;28;20189;-74
2023/01/03 05:16:07;;;;;;;8.20;1.92;;;31.60;99.90;;;;;;5082156;28;20214;-70
2023/01/03 05:18:35;;;;;;;8.83;2.10;;;30.90;99.90;;;;;;5094258;28;20192;-70
2023/01/03 05:26:49;;;;;;;7.90;2.07;;;30.10;99.90;;;;;;5074016;28;20191;-68
2023/01/03 05:29:20;;;;;;;5.00;1.83;;;30.00;99.90;;;;;;5074526;28;20265;-71
2023/01/03 05:31:49;;;;;;;7.30;2.23;;;30.00;99.90;;;;;;5084185;28;20186;-70
2023/01/03 05:34:17;;;;;;;6.33;2.33;;;29.80;99.90;;;;;;5084373;28;20207;-74
2023/01/03 05:36:44;;;;;;;14.07;2.40;;;29.60;99.90;;;;;;5094248;28;20175;-68
2023/01/03 05:39:13;;;;;;;6.67;1.87;;;29.80;99.90;;;;;;5093474;28;20190;-68
2023/01/03 05:41:59;;;;;;;6.37;1.93;;;29.50;99.90;;;;;;5090966;28;20189;-73
2023/01/03 05:44:29;;;;;;;5.43;1.53;;;29.40;99.90;;;;;;5075003;28;20287;-68
2023/01/03 05:46:58;;;;;;;12.33;2.57;;;29.30;99.90;;;;;;5093790;28;20698;-69
2023/01/03 05:49:26;;;;;;;7.60;2.37;;;29.20;99.90;;;;;;5093590;28;20266;-69
2023/01/03 05:51:53;;;;;;;9.07;2.27;;;29.10;99.90;;;;;;5094614;28;20176;-69
2023/01/03 05:54:21;;;;;;;7.97;1.83;;;29.10;99.90;;;;;;5090510;28;20203;-69
2023/01/03 05:56:50;;;;;;;10.43;1.90;;;29.00;99.90;;;;;;5073246;28;20172;-69
2023/01/03 05:59:18;;;;;;;7.83;2.17;;;29.00;99.90;;;;;;5073595;28;20203;-70
2023/01/03 06:01:46;;;;;;;7.67;2.13;;;29.10;99.90;;;;;;5073578;28;20177;-69
2023/01/03 06:04:14;;;;;;;13.30;2.47;;;29.20;99.90;;;;;;5092103;28;20668;-74
2023/01/03 06:06:41;;;;;;;13.10;2.50;;;29.30;99.90;;;;;;5093762;28;20175;-71
2023/01/03 06:09:10;;;;;;;8.77;1.80;;;29.40;99.90;;;;;;5092844;28;20739;-69
2023/01/03 06:11:39;;;;;;;12.73;2.30;;;29.50;99.90;;;;;;5092434;28;20313;-69
2023/01/03 06:14:07;;;;;;;7.30;2.40;;;29.60;99.90;;;;;;5093334;28;20183;-71
2023/01/03 06:19:20;;;;;;;10.17;2.40;;;29.40;99.90;;;;;;5093099;28;20198;-67
2023/01/03 06:21:48;;;;;;;7.93;2.07;;;29.30;99.90;;;;;;5093465;28;20183;-69
2023/01/03 06:24:16;;;;;;;8.13;2.03;;;29.20;99.90;;;;;;5093301;28;20183;-70
2023/01/03 06:26:44;;;;;;;6.67;1.97;;;28.90;99.90;;;;;;5093102;28;20252;-70
2023/01/03 06:29:12;;;;;;;10.33;2.43;;;29.00;99.90;;;;;;5090899;28;20189;-69
2023/01/03 06:31:40;;;;;;;6.87;2.30;;;29.30;99.90;;;;;;5076092;28;20191;-69
2023/01/03 06:34:08;;;;;;;9.50;1.90;;;29.50;99.90;;;;;;5092610;28;20179;-69
2023/01/03 06:36:36;;;;;;;9.00;2.20;;;29.80;99.90;;;;;;5080954;28;20192;-69
2023/01/03 06:39:04;;;;;;;8.63;1.83;;;29.60;99.90;;;;;;5072923;28;20267;-69
2023/01/03 06:41:31;;;;;;;4.67;1.70;;;29.50;99.90;;;;;;5092622;28;20585;-70
2023/01/03 06:43:59;;;;;;;5.10;1.47;;;29.10;99.90;;;;;;5081598;28;20783;-70
2023/01/03 06:54:49;;;;;;;4.37;1.50;;;29.60;99.90;;;;;;5092565;28;20289;-69
2023/01/03 06:57:17;;;;;;;7.20;1.83;;;29.40;99.90;;;;;;5092755;28;20180;-71
2023/01/03 06:59:45;;;;;;;6.37;1.40;;;29.30;99.90;;;;;;5079912;28;20188;-70
2023/01/03 07:02:13;;;;;;;6.30;1.70;;;29.30;99.90;;;;;;5071858;28;20187;-70
2023/01/03 07:04:40;;;;;;;9.57;1.90;;;29.00;99.90;;;;;;5087033;28;20194;-69
2023/01/03 07:07:08;;;;;;;6.57;2.20;;;29.20;99.90;;;;;;5092611;28;20661;-70
2023/01/03 07:09:36;;;;;;;6.77;1.93;;;29.20;99.90;;;;;;5087451;28;20187;-72
2023/01/03 07:13:57;;;;;;;8.13;1.70;;;29.20;99.90;;;;;;5072026;28;20226;-69
2023/01/03 07:14:51;;;;;;;6.87;1.20;;;28.90;99.90;;;;;;5071996;28;20222;-74
2023/01/03 07:17:19;;;;;;;5.70;1.30;;;28.50;99.90;;;;;;5071825;28;20188;-70
2023/01/03 07:19:47;;;;;;;7.37;2.20;;;28.40;99.90;;;;;;5077506;28;20342;-70
2023/01/03 07:25:40;;;;;;;9.23;1.70;;;28.10;99.90;;;;;;5070881;28;20740;-71
2023/01/03 07:28:13;;;;;;;5.13;1.47;;;28.20;99.90;;;;;;5071928;28;20249;-70
2023/01/03 07:30:43;;;;;;;6.40;1.40;;;28.20;99.90;;;;;;5087312;28;20272;-70
2023/01/03 07:33:13;;;;;;;8.97;1.93;;;28.10;99.90;;;;;;5091833;28;20608;-74
2023/01/03 07:35:41;;;;;;;9.70;1.93;;;27.80;99.90;;;;;;5091843;28;20207;-69
2023/01/03 07:38:11;;;;;;;6.83;2.10;;;27.50;99.90;;;;;;5092045;28;20176;-70
2023/01/03 07:40:39;;;;;;;10.20;2.13;;;27.20;99.90;;;;;;5075304;28;20223;-69
2023/01/03 07:47:07;;;;;;;8.90;1.97;;;26.90;99.90;;;;;;5087155;28;20236;-70
2023/01/03 07:49:35;;;;;;;6.27;1.77;;;26.70;99.90;;;;;;5090650;28;20210;-72
2023/01/03 07:52:03;;;;;;;7.50;1.97;;;26.40;99.90;;;;;;5091731;28;20656;-68
2023/01/03 07:54:31;;;;;;;8.50;1.77;;;26.30;99.90;;;;;;5091579;28;20199;-70
2023/01/03 07:56:58;;;;;;;8.57;1.93;;;26.20;99.90;;;;;;5089378;28;20198;-69
2023/01/03 07:59:26;;;;;;;8.00;2.00;;;26.20;99.90;;;;;;5071774;28;20176;-69
2023/01/03 08:01:54;;;;;;;6.30;1.70;;;26.10;99.90;;;;;;5091450;28;20704;-69
2023/01/03 08:04:22;;;;;;;14.47;2.30;;;26.00;99.90;;;;;;5091811;28;20210;-69
2023/01/03 08:06:49;;;;;;;8.73;1.73;;;25.80;99.90;;;;;;5091728;28;20183;-70
2023/01/03 08:14:50;;;;;;;7.30;1.70;;;25.80;99.90;;;;;;5071741;28;20292;-72
2023/01/03 08:17:18;;;;;;;7.50;1.70;;;25.80;99.90;;;;;;5071151;28;20180;-70
2023/01/03 08:19:45;;;;;;;9.37;2.03;;;25.70;99.90;;;;;;5074968;28;20636;-70
2023/01/03 08:22:13;;;;;;;13.57;2.60;;;25.80;99.90;;;;;;5091752;28;20182;-70
2023/01/03 08:24:41;;;;;;;10.40;2.60;;;25.70;99.90;;;;;;5071179;28;20226;-70
2023/01/03 08:27:09;;;;;;;8.47;1.70;;;25.60;99.90;;;;;;5071432;28;20176;-74
2023/01/03 08:29:37;;;;;;;6.90;1.77;;;25.60;99.90;;;;;;5077061;28;20214;-70
2023/01/03 08:32:06;;;;;;;14.37;2.30;;;25.40;99.90;;;;;;5090991;28;20536;-71
2023/01/03 08:34:37;;;;;;;10.67;2.10;;;25.40;99.90;;;;;;5093586;28;20645;-70
2023/01/03 08:37:09;;;;;;;9.50;1.80;;;25.30;99.90;;;;;;5080108;28;20180;-69
2023/01/03 08:40:01;;;;;;;10.37;2.07;;;25.30;99.90;;;;;;5077997;28;20267;-72
2023/01/03 08:42:29;;;;;;;9.97;2.17;;;25.20;99.90;;;;;;5075940;28;20183;-70
2023/01/03 08:45:10;;;;;;;9.63;1.67;;;25.20;99.90;;;;;;5076496;28;20180;-70
2023/01/03 08:47:38;;;;;;;13.40;2.03;;;25.10;99.90;;;;;;5076223;28;20259;-69
2023/01/03 08:50:06;;;;;;;6.30;1.50;;;25.10;99.90;;;;;;5076267;28;20664;-71
2023/01/03 08:52:35;;;;;;;9.70;2.00;;;25.00;99.90;;;;;;5076062;28;20211;-70
2023/01/03 08:55:04;;;;;;;7.57;1.60;;;25.10;99.90;;;;;;5057970;28;20687;-70
2023/01/03 08:57:32;;;;;;;7.93;1.77;;;25.10;99.90;;;;;;5076003;28;20172;-70
2023/01/03 09:00:00;;;;;;;16.70;2.13;;;25.00;99.90;;;;;;5076037;28;20184;-70
2023/01/03 09:02:28;;;;;;;8.63;1.87;;;25.00;99.90;;;;;;5082483;28;20180;-70
2023/01/03 09:04:55;;;;;;;11.30;2.27;;;25.00;99.90;;;;;;5084747;28;20184;-69
2023/01/03 09:07:23;;;;;;;9.50;2.17;;;24.80;99.90;;;;;;5085244;28;20176;-70
2023/01/03 09:09:51;;;;;;;9.43;2.10;;;24.70;99.90;;;;;;5096077;28;20179;-71
2023/01/03 09:12:19;;;;;;;7.90;2.10;;;24.80;99.90;;;;;;5095873;28;20241;-71
2023/01/03 09:14:47;;;;;;;13.57;2.13;;;24.80;99.90;;;;;;5095863;28;20659;-70
2023/01/03 09:17:15;;;;;;;13.37;2.43;;;24.80;99.90;;;;;;5096073;28;20640;-70
2023/01/03 09:22:47;;;;;;;10.13;2.67;;;24.90;99.90;;;;;;5095095;28;20660;-70
2023/01/03 09:25:15;;;;;;;8.53;2.60;;;25.00;99.90;;;;;;5096128;28;20576;-69
2023/01/03 09:27:47;;;;;;;11.40;2.30;;;25.00;99.90;;;;;;5096131;28;20209;-69
2023/01/03 09:30:16;;;;;;;10.63;2.77;;;25.00;99.90;;;;;;5094706;28;20187;-68
2023/01/03 09:32:44;;;;;;;9.20;2.07;;;24.90;99.90;;;;;;5095832;28;20243;-69
2023/01/03 09:35:12;;;;;;;15.43;2.27;;;24.90;99.90;;;;;;5095517;28;20218;-70
2023/01/03 09:37:40;;;;;;;14.83;2.50;;;24.80;99.90;;;;;;5095892;28;20167;-68
2023/01/03 09:40:08;;;;;;;8.93;1.73;;;24.70;99.90;;;;;;5095661;28;20178;-70
2023/01/03 09:46:00;;;;;;;8.87;2.40;;;24.70;99.90;;;;;;5094719;28;20243;-69
2023/01/03 09:48:37;;;;;;;19.33;3.40;;;24.40;99.90;;;;;;5095437;28;20298;-70
2023/01/03 10:06:07;;;;;;;16.10;2.97;;;22.50;99.90;;;;;;5094773;28;20341;-69
2023/01/03 10:09:17;;;;;;;10.53;3.67;;;22.30;99.90;;;;;;5095033;28;20175;-69
2023/01/03 10:12:19;;;;;;;12.00;3.43;;;22.30;99.90;;;;;;5094768;28;20219;-69
2023/01/03 10:15:14;;;;;;;13.47;2.83;;;22.30;99.90;;;;;;5094712;28;20210;-69
2023/01/03 10:18:07;;;;;;;13.20;3.00;;;22.40;99.90;;;;;;5095051;28;20172;-69
2023/01/03 10:20:38;;;;;;;10.83;2.87;;;22.40;99.90;;;;;;5093158;28;20182;-70
2023/01/03 10:23:07;;;;;;;18.10;3.20;;;22.40;99.90;;;;;;5094710;28;20178;-70
2023/01/03 10:25:42;;;;;;;13.13;2.70;;;22.50;99.90;;;;;;5094674;28;20255;-71
2023/01/03 10:28:16;;;;;;;10.87;3.07;;;22.50;99.90;;;;;;5094721;28;20175;-69
2023/01/03 10:31:01;;;;;;;15.57;2.87;;;22.60;99.90;;;;;;5091235;28;20557;-67
2023/01/03 10:33:39;;;;;;;14.00;3.17;;;22.50;99.90;;;;;;5094667;28;20667;-70
2023/01/03 10:36:08;;;;;;;13.13;3.27;;;22.60;99.90;;;;;;5094514;28;20576;-68
2023/01/03 10:38:37;;;;;;;13.37;2.93;;;22.60;99.90;;;;;;5094385;28;20176;-69
2023/01/03 10:41:14;;;;;;;17.10;3.13;;;22.70;99.90;;;;;;5093234;28;20602;-71
2023/01/03 10:43:44;;;;;;;12.73;3.00;;;22.70;99.90;;;;;;5094389;28;20651;-72
2023/01/03 10:46:25;;;;;;;12.03;3.50;;;22.70;99.90;;;;;;5094218;28;20179;-71
2023/01/03 10:48:55;;;;;;;14.73;3.20;;;22.70;99.90;;;;;;5094174;28;20731;-69
2023/01/03 10:51:39;;;;;;;10.97;2.83;;;22.70;99.90;;;;;;5094350;28;20231;-70
2023/01/03 10:54:18;;;;;;;11.50;2.63;;;22.70;99.90;;;;;;5094307;28;20177;-69
2023/01/03 10:56:47;;;;;;;16.30;2.83;;;22.60;99.90;;;;;;5093725;28;20207;-70
2023/01/03 10:59:33;;;;;;;8.43;2.70;;;22.70;99.90;;;;;;5093450;28;20182;-69
2023/01/03 11:02:15;;;;;;;13.43;3.60;;;22.70;99.90;;;;;;5092856;28;20700;-72
2023/01/03 11:04:44;;;;;;;15.70;3.57;;;22.80;99.90;;;;;;5094188;28;20648;-71
2023/01/03 11:07:14;;;;;;;14.10;3.47;;;22.90;99.90;;;;;;5093736;28;20705;-70
2023/01/03 11:09:56;;;;;;;10.47;3.37;;;23.00;99.90;;;;;;5093681;28;20179;-69
2023/01/03 11:12:38;;;;;;;11.37;2.73;;;23.10;99.90;;;;;;5093507;28;20219;-69
2023/01/03 11:15:24;;;;;;;12.43;2.80;;;23.10;99.90;;;;;;5094043;28;20218;-74
2023/01/03 11:17:58;;;;;;;11.63;2.47;;;23.10;99.90;;;;;;5092348;28;20175;-69
2023/01/03 11:24:24;;;;;;;11.67;2.93;;;23.00;99.90;;;;;;5093961;28;20232;-72
2023/01/03 11:27:23;;;;;;;12.83;3.10;;;22.90;99.90;;;;;;5093746;28;20179;-72
2023/01/03 11:30:12;;;;;;;11.47;2.80;;;22.90;99.90;;;;;;5061339;28;20194;-71
2023/01/03 11:32:50;;;;;;;9.30;2.70;;;22.90;99.90;;;;;;5093799;28;20175;-70
2023/01/03 11:35:39;;;;;;;12.90;2.63;;;22.90;99.90;;;;;;5093673;28;20199;-71
2023/01/03 11:38:28;;;;;;;9.10;2.33;;;22.90;99.90;;;;;;5093672;28;20621;-71
2023/01/03 11:41:36;;;;;;;7.77;2.10;;;22.90;99.90;;;;;;5093798;28;20235;-71
2023/01/03 11:44:25;;;;;;;13.57;2.60;;;23.00;99.90;;;;;;5093253;28;20172;-75
2023/01/03 11:47:09;;;;;;;12.53;2.47;;;23.00;99.90;;;;;;5093455;28;20195;-69
2023/01/03 11:50:23;;;;;;;14.33;2.90;;;23.10;99.90;;;;;;5093527;28;20671;-70
2023/01/03 11:53:21;;;;;;;10.40;2.00;;;23.20;99.90;;;;;;5049694;28;20218;-73
2023/01/03 11:56:23;;;;;;;15.40;3.20;;;23.20;99.90;;;;;;5093183;28;20241;-69
2023/01/03 11:59:03;;;;;;;10.80;2.40;;;23.20;99.90;;;;;;5093723;28;20175;-71
2023/01/03 12:01:43;;;;;;;6.60;2.33;;;23.10;99.90;;;;;;5093379;28;20734;-71
2023/01/03 12:04:34;;;;;;;8.33;2.63;;;23.10;99.90;;;;;;5080449;28;20194;-73
2023/01/03 12:07:16;;;;;;;11.40;2.67;;;23.20;99.90;;;;;;5073879;28;20202;-71
2023/01/03 12:10:10;;;;;;;11.80;2.93;;;23.20;99.90;;;;;;5077885;28;20622;-74
2023/01/03 12:13:05;;;;;;;12.93;3.00;;;23.20;99.90;;;;;;5080414;28;20264;-70
2023/01/03 12:15:57;;;;;;;10.60;2.83;;;23.10;99.90;;;;;;5097275;28;20244;-69
2023/01/03 12:18:38;;;;;;;14.40;3.57;;;23.20;99.90;;;;;;5097705;28;20228;-69
2023/01/03 12:21:38;;;;;;;14.60;3.17;;;23.20;99.90;;;;;;5097951;28;20194;-70
2023/01/03 12:24:28;;;;;;;13.10;2.63;;;23.20;99.90;;;;;;5073969;28;20191;-71
2023/01/03 12:27:14;;;;;;;21.30;4.63;;;23.20;99.90;;;;;;5077433;28;20254;-71
2023/01/03 12:30:04;;;;;;;13.80;3.67;;;23.20;99.90;;;;;;5076642;28;20171;-70
2023/01/03 12:32:54;;;;;;;16.90;3.50;;;23.10;99.90;;;;;;5079539;28;20202;-71
2023/01/03 12:35:25;;;;;;;19.47;4.13;;;23.10;99.90;;;;;;5096974;28;20589;-70
2023/01/03 12:37:55;;;;;;;11.03;3.00;;;23.00;99.90;;;;;;5097033;28;20254;-71
2023/01/03 12:40:32;;;;;;;13.23;3.13;;;23.10;99.90;;;;;;5096860;28;20174;-70
2023/01/03 12:43:25;;;;;;;10.43;3.60;;;23.00;99.90;;;;;;5088942;28;20186;-71
2023/01/03 12:45:58;;;;;;;11.43;3.93;;;23.00;99.90;;;;;;5076147;28;20215;-73
2023/01/03 12:48:54;;;;;;;11.47;3.40;;;23.00;99.90;;;;;;5076291;28;20172;-71
2023/01/03 12:51:23;;;;;;;14.93;3.80;;;23.00;99.90;;;;;;5084688;28;20192;-71
2023/01/03 12:54:16;;;;;;;17.67;3.60;;;23.00;99.90;;;;;;5091915;28;20721;-70
2023/01/03 12:57:05;;;;;;;11.10;2.50;;;23.00;99.90;;;;;;5095447;28;20188;-71
2023/01/03 12:59:42;;;;;;;17.17;2.93;;;23.00;99.90;;;;;;5082394;28;20183;-70
2023/01/03 13:02:32;;;;;;;20.53;3.73;;;23.00;99.90;;;;;;5077337;28;20189;-70
2023/01/03 13:05:19;;;;;;;17.23;3.63;;;23.00;99.90;;;;;;5059079;28;20712;-71
2023/01/03 13:08:15;;;;;;;16.50;3.20;;;22.90;99.90;;;;;;5096559;28;20179;-70
2023/01/03 13:10:49;;;;;;;15.83;3.93;;;22.90;99.90;;;;;;5085508;28;20219;-69
2023/01/03 13:13:19;;;;;;;16.07;3.50;;;22.80;99.90;;;;;;5095622;28;20183;-73
2023/01/03 13:15:47;;;;;;;17.40;3.53;;;22.80;99.90;;;;;;5095997;28;20683;-71
2023/01/03 13:18:24;;;;;;;13.57;3.20;;;22.80;99.90;;;;;;5098651;28;20213;-70
2023/01/03 13:20:55;;;;;;;16.03;3.27;;;22.80;99.90;;;;;;5098462;28;20190;-69
2023/01/03 13:23:38;;;;;;;20.53;3.50;;;22.70;99.90;;;;;;5087576;28;20523;-73
2023/01/03 13:26:06;;;;;;;19.53;3.67;;;22.60;99.90;;;;;;5079175;28;20194;-70
2023/01/03 13:28:38;;;;;;;18.47;4.40;;;22.40;99.90;;;;;;5096019;28;20191;-70
2023/01/03 13:31:17;;;;;;;21.33;4.53;;;22.40;99.90;;;;;;5096087;28;20261;-70
2023/01/03 13:34:13;;;;;;;15.67;3.70;;;22.40;99.90;;;;;;5081716;28;20204;-70
2023/01/03 13:37:09;;;;;;;16.10;3.87;;;22.40;99.90;;;;;;5075721;28;20279;-69
2023/01/03 13:39:47;;;;;;;13.93;4.03;;;22.50;99.90;;;;;;5076128;28;20233;-70
2023/01/03 13:42:34;;;;;;;13.17;4.17;;;22.60;99.90;;;;;;5077426;28;20630;-69
2023/01/03 13:45:23;;;;;;;14.40;3.33;;;22.60;99.90;;;;;;5095554;28;20189;-71
2023/01/03 13:47:53;;;;;;;15.63;3.40;;;22.60;99.90;;;;;;5095977;28;20586;-70
2023/01/03 13:50:35;;;;;;;12.23;3.03;;;22.60;99.90;;;;;;5095763;28;20183;-70
2023/01/03 13:53:04;;;;;;;15.53;3.60;;;22.60;99.90;;;;;;5086797;28;20187;-69
2023/01/03 13:55:43;;;;;;;17.67;3.90;;;22.50;99.90;;;;;;5075225;28;20203;-69
2023/01/03 13:58:44;;;;;;;14.87;3.40;;;22.50;99.90;;;;;;5075734;28;20179;-69
2023/01/03 14:01:35;;;;;;;15.27;3.10;;;22.50;99.90;;;;;;5093976;28;20179;-69
2023/01/03 14:04:28;;;;;;;18.20;3.40;;;22.50;99.90;;;;;;5066629;28;20201;-68
2023/01/03 14:07:13;;;;;;;20.50;3.43;;;22.50;99.90;;;;;;5075413;28;20180;-71
2023/01/03 14:09:54;;;;;;;16.27;3.10;;;22.50;99.90;;;;;;5074972;28;20276;-69
2023/01/03 14:12:58;;;;;;;15.77;3.40;;;22.40;99.90;;;;;;5079422;28;20221;-70
2023/01/03 14:15:29;;;;;;;12.37;3.13;;;22.40;99.90;;;;;;5095250;28;20345;-70
2023/01/03 14:18:12;;;;;;;12.73;3.37;;;22.40;99.90;;;;;;5095503;28;20633;-71
2023/01/03 14:20:44;;;;;;;15.70;3.33;;;22.40;99.90;;;;;;5088271;28;20553;-70
2023/01/03 14:23:15;;;;;;;12.60;3.20;;;22.50;99.90;;;;;;5085953;28;20186;-70
2023/01/03 14:25:45;;;;;;;11.50;3.10;;;22.50;99.90;;;;;;5094942;28;20181;-70
2023/01/03 14:28:23;;;;;;;14.37;3.03;;;22.60;99.90;;;;;;5095173;28;20237;-70
2023/01/03 14:31:04;;;;;;;14.23;3.10;;;22.60;99.90;;;;;;5094054;28;20179;-74
2023/01/03 14:33:46;;;;;;;19.77;3.00;;;22.70;99.90;;;;;;5080593;28;20179;-69
2023/01/03 14:36:15;;;;;;;10.67;3.00;;;22.70;99.90;;;;;;5074679;28;20210;-70
2023/01/03 14:38:51;;;;;;;15.40;3.37;;;22.70;99.90;;;;;;5074590;28;20171;-72